sensor_id;sensor_type;location;lat;lon;timestamp;temperature;humidity
24262;DHT22;12385;51.412;5.540;2023-07-28T00:00:21;18.30;99.90
24262;DHT22;12385;51.412;5.540;2023-07-28T00:02:46;18.20;99.90
24262;DHT22;12385;51.412;5.540;2023-07-28T00:05:12;18.30;99.90
24262;DHT22;12385;51.412;5.540;2023-07-28T00:07:38;18.20;99.90
24262;DHT22;12385;51.412;5.540;2023-07-28T00:10:04;18.20;99.90
24262;DHT22;12385;51.412;5.540;2023-07-28T00:12:30;18.30;99.90
24262;DHT22;12385;51.412;5.540;2023-07-28T00:14:56;18.20;99.90
24262;DHT22;12385;51.412;5.540;2023-07-28T00:17:22;18.30;99.90
24262;DHT22;12385;51.412;5.540;2023-07-28T00:19:47;18.30;99.90
24262;DHT22;12385;51.412;5.540;2023-07-28T00:22:13;18.30;99.90
24262;DHT22;12385;51.412;5.540;2023-07-28T00:24:39;18.30;99.90
24262;DHT22;12385;51.412;5.540;2023-07-28T00:27:05;18.20;99.90
24262;DHT22;12385;51.412;5.540;2023-07-28T00:29:30;18.20;99.90
24262;DHT22;12385;51.412;5.540;2023-07-28T00:31:56;18.30;99.90
24262;DHT22;12385;51.412;5.540;2023-07-28T00:34:22;18.30;99.90
24262;DHT22;12385;51.412;5.540;2023-07-28T00:36:47;18.30;99.90
24262;DHT22;12385;51.412;5.540;2023-07-28T00:39:13;18.30;99.90
24262;DHT22;12385;51.412;5.540;2023-07-28T00:41:39;18.20;99.90
24262;DHT22;12385;51.412;5.540;2023-07-28T00:44:04;18.20;99.90
24262;DHT22;12385;51.412;5.540;2023-07-28T00:46:30;18.20;99.90
24262;DHT22;12385;51.412;5.540;2023-07-28T00:48:56;18.30;99.90
24262;DHT22;12385;51.412;5.540;2023-07-28T00:51:22;18.20;99.90
24262;DHT22;12385;51.412;5.540;2023-07-28T00:53:48;18.20;99.90
24262;DHT22;12385;51.412;5.540;2023-07-28T00:56:15;18.30;99.90
24262;DHT22;12385;51.412;5.540;2023-07-28T00:58:42;18.20;99.90
24262;DHT22;12385;51.412;5.540;2023-07-28T01:01:08;18.20;99.90
24262;DHT22;12385;51.412;5.540;2023-07-28T01:03:34;18.20;99.90
24262;DHT22;12385;51.412;5.540;2023-07-28T01:09:03;18.20;99.90
24262;DHT22;12385;51.412;5.540;2023-07-28T01:11:30;18.20;99.90
24262;DHT22;12385;51.412;5.540;2023-07-28T01:13:56;18.30;99.90
24262;DHT22;12385;51.412;5.540;2023-07-28T01:16:22;18.30;99.90
24262;DHT22;12385;51.412;5.540;2023-07-28T01:18:47;18.20;99.90
24262;DHT22;12385;51.412;5.540;2023-07-28T01:21:20;18.30;99.90
24262;DHT22;12385;51.412;5.540;2023-07-28T01:23:59;18.20;99.90
24262;DHT22;12385;51.412;5.540;2023-07-28T01:26:35;18.20;99.90
24262;DHT22;12385;51.412;5.540;2023-07-28T01:29:02;18.20;99.90
24262;DHT22;12385;51.412;5.540;2023-07-28T01:31:29;18.20;99.90
24262;DHT22;12385;51.412;5.540;2023-07-28T01:33:55;18.20;99.90
24262;DHT22;12385;51.412;5.540;2023-07-28T01:36:20;18.20;99.90
24262;DHT22;12385;51.412;5.540;2023-07-28T01:38:46;18.20;99.90
24262;DHT22;12385;51.412;5.540;2023-07-28T01:41:12;18.20;99.90
24262;DHT22;12385;51.412;5.540;2023-07-28T01:43:37;18.20;99.90
24262;DHT22;12385;51.412;5.540;2023-07-28T01:46:03;18.20;99.90
24262;DHT22;12385;51.412;5.540;2023-07-28T01:48:29;18.20;99.90
24262;DHT22;12385;51.412;5.540;2023-07-28T01:50:55;18.30;99.90
24262;DHT22;12385;51.412;5.540;2023-07-28T01:53:21;18.30;99.90
24262;DHT22;12385;51.412;5.540;2023-07-28T01:55:46;18.20;99.90
24262;DHT22;12385;51.412;5.540;2023-07-28T01:58:12;18.30;99.90
24262;DHT22;12385;51.412;5.540;2023-07-28T02:00:38;18.20;99.90
24262;DHT22;12385;51.412;5.540;2023-07-28T02:03:03;18.30;99.90
24262;DHT22;12385;51.412;5.540;2023-07-28T02:05:30;18.30;99.90
24262;DHT22;12385;51.412;5.540;2023-07-28T02:07:56;18.30;99.90
24262;DHT22;12385;51.412;5.540;2023-07-28T02:10:23;18.30;99.90
24262;DHT22;12385;51.412;5.540;2023-07-28T02:12:49;18.30;99.90
24262;DHT22;12385;51.412;5.540;2023-07-28T02:15:15;18.30;99.90
24262;DHT22;12385;51.412;5.540;2023-07-28T02:17:40;18.30;99.90
24262;DHT22;12385;51.412;5.540;2023-07-28T02:20:07;18.30;99.90
24262;DHT22;12385;51.412;5.540;2023-07-28T02:22:36;18.20;99.90
24262;DHT22;12385;51.412;5.540;2023-07-28T02:25:01;18.20;99.90
24262;DHT22;12385;51.412;5.540;2023-07-28T02:27:28;18.20;99.90
24262;DHT22;12385;51.412;5.540;2023-07-28T02:29:54;18.20;99.90
24262;DHT22;12385;51.412;5.540;2023-07-28T02:32:20;18.30;99.90
24262;DHT22;12385;51.412;5.540;2023-07-28T02:34:45;18.30;99.90
24262;DHT22;12385;51.412;5.540;2023-07-28T02:37:11;18.30;99.90
24262;DHT22;12385;51.412;5.540;2023-07-28T02:39:37;18.30;99.90
24262;DHT22;12385;51.412;5.540;2023-07-28T02:42:03;18.30;99.90
24262;DHT22;12385;51.412;5.540;2023-07-28T02:44:28;18.30;99.90
24262;DHT22;12385;51.412;5.540;2023-07-28T02:46:54;18.30;99.90
24262;DHT22;12385;51.412;5.540;2023-07-28T02:49:21;18.30;99.90
24262;DHT22;12385;51.412;5.540;2023-07-28T02:51:47;18.30;99.90
24262;DHT22;12385;51.412;5.540;2023-07-28T02:54:12;18.30;99.90
24262;DHT22;12385;51.412;5.540;2023-07-28T02:56:38;18.30;99.90
24262;DHT22;12385;51.412;5.540;2023-07-28T02:59:04;18.30;99.90
24262;DHT22;12385;51.412;5.540;2023-07-28T03:01:30;18.30;99.90
24262;DHT22;12385;51.412;5.540;2023-07-28T03:04:03;18.40;99.90
24262;DHT22;12385;51.412;5.540;2023-07-28T03:06:28;18.40;99.90
24262;DHT22;12385;51.412;5.540;2023-07-28T03:08:54;18.40;99.90
24262;DHT22;12385;51.412;5.540;2023-07-28T03:11:20;18.40;99.90
24262;DHT22;12385;51.412;5.540;2023-07-28T03:13:46;18.40;99.90
24262;DHT22;12385;51.412;5.540;2023-07-28T03:16:12;18.40;99.90
24262;DHT22;12385;51.412;5.540;2023-07-28T03:18:37;18.40;99.90
24262;DHT22;12385;51.412;5.540;2023-07-28T03:21:03;18.40;99.90
24262;DHT22;12385;51.412;5.540;2023-07-28T03:23:29;18.40;99.90
24262;DHT22;12385;51.412;5.540;2023-07-28T03:25:55;18.40;99.90
24262;DHT22;12385;51.412;5.540;2023-07-28T03:28:20;18.40;99.90
24262;DHT22;12385;51.412;5.540;2023-07-28T03:30:46;18.40;99.90
24262;DHT22;12385;51.412;5.540;2023-07-28T03:33:12;18.40;99.90
24262;DHT22;12385;51.412;5.540;2023-07-28T03:35:37;18.40;99.90
24262;DHT22;12385;51.412;5.540;2023-07-28T03:38:03;18.30;99.90
24262;DHT22;12385;51.412;5.540;2023-07-28T03:40:29;18.40;99.90
24262;DHT22;12385;51.412;5.540;2023-07-28T03:42:55;18.40;99.90
24262;DHT22;12385;51.412;5.540;2023-07-28T03:45:20;18.40;99.90
24262;DHT22;12385;51.412;5.540;2023-07-28T03:47:46;18.40;99.90
24262;DHT22;12385;51.412;5.540;2023-07-28T03:50:12;18.40;99.90
24262;DHT22;12385;51.412;5.540;2023-07-28T03:52:37;18.40;99.90
24262;DHT22;12385;51.412;5.540;2023-07-28T03:55:03;18.40;99.90
24262;DHT22;12385;51.412;5.540;2023-07-28T03:57:29;18.40;99.90
24262;DHT22;12385;51.412;5.540;2023-07-28T03:59:55;18.40;99.90
24262;DHT22;12385;51.412;5.540;2023-07-28T04:02:20;18.40;99.90
24262;DHT22;12385;51.412;5.540;2023-07-28T04:04:46;18.40;99.90
24262;DHT22;12385;51.412;5.540;2023-07-28T04:07:12;18.40;99.90
24262;DHT22;12385;51.412;5.540;2023-07-28T04:09:37;18.50;99.90
24262;DHT22;12385;51.412;5.540;2023-07-28T04:12:04;18.40;99.90
24262;DHT22;12385;51.412;5.540;2023-07-28T04:14:30;18.40;99.90
24262;DHT22;12385;51.412;5.540;2023-07-28T04:16:56;18.40;99.90
24262;DHT22;12385;51.412;5.540;2023-07-28T04:19:21;18.40;99.90
24262;DHT22;12385;51.412;5.540;2023-07-28T04:21:47;18.40;99.90
24262;DHT22;12385;51.412;5.540;2023-07-28T04:24:13;18.40;99.90
24262;DHT22;12385;51.412;5.540;2023-07-28T04:26:38;18.50;99.90
24262;DHT22;12385;51.412;5.540;2023-07-28T04:29:04;18.40;99.90
24262;DHT22;12385;51.412;5.540;2023-07-28T04:31:29;18.50;99.90
24262;DHT22;12385;51.412;5.540;2023-07-28T04:33:55;18.50;99.90
24262;DHT22;12385;51.412;5.540;2023-07-28T04:36:21;18.50;99.90
24262;DHT22;12385;51.412;5.540;2023-07-28T04:38:47;18.50;99.90
24262;DHT22;12385;51.412;5.540;2023-07-28T04:41:12;18.50;99.90
24262;DHT22;12385;51.412;5.540;2023-07-28T04:43:38;18.50;99.90
24262;DHT22;12385;51.412;5.540;2023-07-28T04:46:03;18.40;99.90
24262;DHT22;12385;51.412;5.540;2023-07-28T04:48:29;18.50;99.90
24262;DHT22;12385;51.412;5.540;2023-07-28T04:50:55;18.50;99.90
24262;DHT22;12385;51.412;5.540;2023-07-28T04:53:20;18.50;99.90
24262;DHT22;12385;51.412;5.540;2023-07-28T04:55:46;18.50;99.90
24262;DHT22;12385;51.412;5.540;2023-07-28T04:58:12;18.50;99.90
24262;DHT22;12385;51.412;5.540;2023-07-28T05:00:37;18.50;99.90
24262;DHT22;12385;51.412;5.540;2023-07-28T05:03:03;18.50;99.90
24262;DHT22;12385;51.412;5.540;2023-07-28T05:05:29;18.50;99.90
24262;DHT22;12385;51.412;5.540;2023-07-28T05:07:55;18.50;99.90
24262;DHT22;12385;51.412;5.540;2023-07-28T05:10:21;18.50;99.90
24262;DHT22;12385;51.412;5.540;2023-07-28T05:12:47;18.50;99.90
24262;DHT22;12385;51.412;5.540;2023-07-28T05:15:14;18.50;99.90
24262;DHT22;12385;51.412;5.540;2023-07-28T05:17:40;18.50;99.90
24262;DHT22;12385;51.412;5.540;2023-07-28T05:20:06;18.50;99.90
24262;DHT22;12385;51.412;5.540;2023-07-28T05:22:32;18.50;99.90
24262;DHT22;12385;51.412;5.540;2023-07-28T05:24:58;18.50;99.90
24262;DHT22;12385;51.412;5.540;2023-07-28T05:27:23;18.60;99.90
24262;DHT22;12385;51.412;5.540;2023-07-28T05:29:49;18.60;99.90
24262;DHT22;12385;51.412;5.540;2023-07-28T05:32:15;18.60;99.90
24262;DHT22;12385;51.412;5.540;2023-07-28T05:34:44;18.50;99.90
24262;DHT22;12385;51.412;5.540;2023-07-28T05:37:10;18.50;99.90
24262;DHT22;12385;51.412;5.540;2023-07-28T05:39:36;18.50;99.90
24262;DHT22;12385;51.412;5.540;2023-07-28T05:42:02;18.50;99.90
24262;DHT22;12385;51.412;5.540;2023-07-28T05:44:28;18.50;99.90
24262;DHT22;12385;51.412;5.540;2023-07-28T05:46:53;18.60;99.90
24262;DHT22;12385;51.412;5.540;2023-07-28T05:49:20;18.60;99.90
24262;DHT22;12385;51.412;5.540;2023-07-28T05:51:46;18.60;99.90
24262;DHT22;12385;51.412;5.540;2023-07-28T05:54:12;18.60;99.90
24262;DHT22;12385;51.412;5.540;2023-07-28T05:56:40;18.60;99.90
24262;DHT22;12385;51.412;5.540;2023-07-28T05:59:06;18.70;99.90
24262;DHT22;12385;51.412;5.540;2023-07-28T06:01:31;18.70;99.90
24262;DHT22;12385;51.412;5.540;2023-07-28T06:03:58;18.70;99.90
24262;DHT22;12385;51.412;5.540;2023-07-28T06:06:25;18.70;99.90
24262;DHT22;12385;51.412;5.540;2023-07-28T06:08:52;18.70;99.90
24262;DHT22;12385;51.412;5.540;2023-07-28T06:11:19;18.80;99.90
24262;DHT22;12385;51.412;5.540;2023-07-28T06:13:45;18.80;99.90
24262;DHT22;12385;51.412;5.540;2023-07-28T06:16:12;18.80;99.90
24262;DHT22;12385;51.412;5.540;2023-07-28T06:18:37;18.90;99.90
24262;DHT22;12385;51.412;5.540;2023-07-28T06:21:03;19.00;99.90
24262;DHT22;12385;51.412;5.540;2023-07-28T06:23:29;19.00;99.90
24262;DHT22;12385;51.412;5.540;2023-07-28T06:25:55;19.00;99.90
24262;DHT22;12385;51.412;5.540;2023-07-28T06:28:21;19.00;99.90
24262;DHT22;12385;51.412;5.540;2023-07-28T06:30:46;19.10;99.90
24262;DHT22;12385;51.412;5.540;2023-07-28T06:33:12;19.20;99.90
24262;DHT22;12385;51.412;5.540;2023-07-28T06:35:38;19.20;99.90
24262;DHT22;12385;51.412;5.540;2023-07-28T06:38:04;19.20;99.90
24262;DHT22;12385;51.412;5.540;2023-07-28T06:40:30;19.20;99.90
24262;DHT22;12385;51.412;5.540;2023-07-28T06:42:55;19.20;99.90
24262;DHT22;12385;51.412;5.540;2023-07-28T06:45:21;19.30;99.90
24262;DHT22;12385;51.412;5.540;2023-07-28T06:47:47;19.30;99.90
24262;DHT22;12385;51.412;5.540;2023-07-28T06:50:13;19.40;99.90
24262;DHT22;12385;51.412;5.540;2023-07-28T06:52:39;19.40;99.90
24262;DHT22;12385;51.412;5.540;2023-07-28T06:55:06;19.50;99.90
24262;DHT22;12385;51.412;5.540;2023-07-28T06:57:31;19.50;99.90
24262;DHT22;12385;51.412;5.540;2023-07-28T06:59:57;19.50;99.90
24262;DHT22;12385;51.412;5.540;2023-07-28T07:02:23;19.50;99.90
24262;DHT22;12385;51.412;5.540;2023-07-28T07:04:49;19.50;99.90
24262;DHT22;12385;51.412;5.540;2023-07-28T07:07:14;19.50;99.90
24262;DHT22;12385;51.412;5.540;2023-07-28T07:09:40;19.50;99.90
24262;DHT22;12385;51.412;5.540;2023-07-28T07:12:10;19.50;99.90
24262;DHT22;12385;51.412;5.540;2023-07-28T07:14:36;19.50;99.90
24262;DHT22;12385;51.412;5.540;2023-07-28T07:17:01;19.50;99.90
24262;DHT22;12385;51.412;5.540;2023-07-28T07:19:30;19.60;99.90
24262;DHT22;12385;51.412;5.540;2023-07-28T07:21:56;19.60;99.90
24262;DHT22;12385;51.412;5.540;2023-07-28T07:24:22;19.60;99.90
24262;DHT22;12385;51.412;5.540;2023-07-28T07:26:48;19.60;99.90
24262;DHT22;12385;51.412;5.540;2023-07-28T07:29:13;19.70;99.90
24262;DHT22;12385;51.412;5.540;2023-07-28T07:31:39;19.70;99.90
24262;DHT22;12385;51.412;5.540;2023-07-28T07:34:05;19.80;99.90
24262;DHT22;12385;51.412;5.540;2023-07-28T07:36:31;19.90;99.90
24262;DHT22;12385;51.412;5.540;2023-07-28T07:38:57;19.90;99.90
24262;DHT22;12385;51.412;5.540;2023-07-28T07:41:23;19.90;99.90
24262;DHT22;12385;51.412;5.540;2023-07-28T07:43:50;19.90;99.90
24262;DHT22;12385;51.412;5.540;2023-07-28T07:46:18;20.00;99.90
24262;DHT22;12385;51.412;5.540;2023-07-28T07:48:46;20.10;99.90
24262;DHT22;12385;51.412;5.540;2023-07-28T07:51:12;20.10;99.90
24262;DHT22;12385;51.412;5.540;2023-07-28T07:53:38;20.10;99.90
24262;DHT22;12385;51.412;5.540;2023-07-28T07:56:05;20.10;99.90
24262;DHT22;12385;51.412;5.540;2023-07-28T07:58:31;20.20;99.90
24262;DHT22;12385;51.412;5.540;2023-07-28T08:00:57;20.20;99.90
24262;DHT22;12385;51.412;5.540;2023-07-28T08:03:23;20.20;99.90
24262;DHT22;12385;51.412;5.540;2023-07-28T08:05:50;20.20;99.90
24262;DHT22;12385;51.412;5.540;2023-07-28T08:08:16;20.20;99.90
24262;DHT22;12385;51.412;5.540;2023-07-28T08:10:43;20.20;99.90
24262;DHT22;12385;51.412;5.540;2023-07-28T08:13:09;20.30;99.90
24262;DHT22;12385;51.412;5.540;2023-07-28T08:15:34;20.30;99.90
24262;DHT22;12385;51.412;5.540;2023-07-28T08:18:00;20.30;99.90
24262;DHT22;12385;51.412;5.540;2023-07-28T08:20:26;20.40;99.90
24262;DHT22;12385;51.412;5.540;2023-07-28T08:22:52;20.40;99.90
24262;DHT22;12385;51.412;5.540;2023-07-28T08:25:17;20.40;99.90
24262;DHT22;12385;51.412;5.540;2023-07-28T08:27:43;20.50;99.90
24262;DHT22;12385;51.412;5.540;2023-07-28T08:30:10;20.50;99.90
24262;DHT22;12385;51.412;5.540;2023-07-28T08:32:36;20.50;99.90
24262;DHT22;12385;51.412;5.540;2023-07-28T08:35:02;20.60;99.90
24262;DHT22;12385;51.412;5.540;2023-07-28T08:37:28;20.70;99.90
24262;DHT22;12385;51.412;5.540;2023-07-28T08:39:54;20.80;99.90
24262;DHT22;12385;51.412;5.540;2023-07-28T08:42:21;20.90;99.90
24262;DHT22;12385;51.412;5.540;2023-07-28T08:44:48;21.00;99.90
24262;DHT22;12385;51.412;5.540;2023-07-28T08:47:14;21.00;99.90
24262;DHT22;12385;51.412;5.540;2023-07-28T08:49:40;21.10;99.90
24262;DHT22;12385;51.412;5.540;2023-07-28T08:52:06;21.10;99.90
24262;DHT22;12385;51.412;5.540;2023-07-28T08:54:31;21.30;99.90
24262;DHT22;12385;51.412;5.540;2023-07-28T08:56:58;21.30;99.90
24262;DHT22;12385;51.412;5.540;2023-07-28T08:59:24;21.40;99.90
24262;DHT22;12385;51.412;5.540;2023-07-28T09:01:56;21.40;99.90
24262;DHT22;12385;51.412;5.540;2023-07-28T09:04:23;21.50;99.90
24262;DHT22;12385;51.412;5.540;2023-07-28T09:06:50;21.60;99.90
24262;DHT22;12385;51.412;5.540;2023-07-28T09:09:21;21.70;99.90
24262;DHT22;12385;51.412;5.540;2023-07-28T09:11:50;21.70;99.90
24262;DHT22;12385;51.412;5.540;2023-07-28T09:14:18;21.90;99.90
24262;DHT22;12385;51.412;5.540;2023-07-28T09:16:45;22.00;99.90
24262;DHT22;12385;51.412;5.540;2023-07-28T09:19:12;22.20;99.90
24262;DHT22;12385;51.412;5.540;2023-07-28T09:21:39;22.30;99.90
24262;DHT22;12385;51.412;5.540;2023-07-28T09:24:14;22.30;99.90
24262;DHT22;12385;51.412;5.540;2023-07-28T09:26:47;22.30;99.90
24262;DHT22;12385;51.412;5.540;2023-07-28T09:29:18;22.30;99.90
24262;DHT22;12385;51.412;5.540;2023-07-28T09:31:46;22.30;99.90
24262;DHT22;12385;51.412;5.540;2023-07-28T09:34:12;22.30;99.90
24262;DHT22;12385;51.412;5.540;2023-07-28T09:36:40;22.30;99.90
24262;DHT22;12385;51.412;5.540;2023-07-28T09:39:06;22.40;99.90
24262;DHT22;12385;51.412;5.540;2023-07-28T09:41:36;22.50;99.90
24262;DHT22;12385;51.412;5.540;2023-07-28T09:44:03;22.60;99.90
24262;DHT22;12385;51.412;5.540;2023-07-28T09:46:33;22.70;99.90
24262;DHT22;12385;51.412;5.540;2023-07-28T09:48:59;22.70;99.90
24262;DHT22;12385;51.412;5.540;2023-07-28T09:51:29;22.80;99.90
24262;DHT22;12385;51.412;5.540;2023-07-28T09:54:14;22.70;99.90
24262;DHT22;12385;51.412;5.540;2023-07-28T09:56:44;22.60;99.90
24262;DHT22;12385;51.412;5.540;2023-07-28T09:59:13;22.60;99.90
24262;DHT22;12385;51.412;5.540;2023-07-28T10:01:44;22.60;99.90
24262;DHT22;12385;51.412;5.540;2023-07-28T10:04:11;22.70;99.90
24262;DHT22;12385;51.412;5.540;2023-07-28T10:06:37;22.70;99.90
24262;DHT22;12385;51.412;5.540;2023-07-28T10:09:04;22.80;99.90
24262;DHT22;12385;51.412;5.540;2023-07-28T10:11:32;22.80;99.90
24262;DHT22;12385;51.412;5.540;2023-07-28T10:13:57;22.90;99.90
24262;DHT22;12385;51.412;5.540;2023-07-28T10:16:39;22.90;99.90
24262;DHT22;12385;51.412;5.540;2023-07-28T10:19:05;23.00;99.90
24262;DHT22;12385;51.412;5.540;2023-07-28T10:21:31;23.00;99.90
24262;DHT22;12385;51.412;5.540;2023-07-28T10:24:00;23.10;99.90
24262;DHT22;12385;51.412;5.540;2023-07-28T10:26:38;23.20;99.90
24262;DHT22;12385;51.412;5.540;2023-07-28T10:29:14;23.30;99.90
24262;DHT22;12385;51.412;5.540;2023-07-28T10:31:55;23.40;99.90
24262;DHT22;12385;51.412;5.540;2023-07-28T10:34:22;23.40;99.90
24262;DHT22;12385;51.412;5.540;2023-07-28T10:36:57;23.50;99.90
24262;DHT22;12385;51.412;5.540;2023-07-28T10:39:24;23.50;99.90
24262;DHT22;12385;51.412;5.540;2023-07-28T10:44:27;23.50;99.90
24262;DHT22;12385;51.412;5.540;2023-07-28T10:46:53;23.50;99.90
24262;DHT22;12385;51.412;5.540;2023-07-28T10:49:19;23.60;99.90
24262;DHT22;12385;51.412;5.540;2023-07-28T10:51:45;23.70;99.90
24262;DHT22;12385;51.412;5.540;2023-07-28T10:54:12;23.80;99.90
24262;DHT22;12385;51.412;5.540;2023-07-28T10:56:42;24.00;99.90
24262;DHT22;12385;51.412;5.540;2023-07-28T10:59:07;24.10;99.90
24262;DHT22;12385;51.412;5.540;2023-07-28T11:01:37;24.20;99.90
24262;DHT22;12385;51.412;5.540;2023-07-28T11:04:20;24.30;99.90
24262;DHT22;12385;51.412;5.540;2023-07-28T11:06:48;24.40;99.90
24262;DHT22;12385;51.412;5.540;2023-07-28T11:09:17;24.60;99.90
24262;DHT22;12385;51.412;5.540;2023-07-28T11:11:43;24.70;99.90
24262;DHT22;12385;51.412;5.540;2023-07-28T11:14:09;24.80;99.90
24262;DHT22;12385;51.412;5.540;2023-07-28T11:16:39;24.80;99.90
24262;DHT22;12385;51.412;5.540;2023-07-28T11:19:11;25.00;99.90
24262;DHT22;12385;51.412;5.540;2023-07-28T11:21:42;25.00;99.90
24262;DHT22;12385;51.412;5.540;2023-07-28T11:24:09;25.10;99.90
24262;DHT22;12385;51.412;5.540;2023-07-28T11:26:35;25.00;99.90
24262;DHT22;12385;51.412;5.540;2023-07-28T11:29:02;24.90;99.90
24262;DHT22;12385;51.412;5.540;2023-07-28T11:31:29;24.80;99.90
24262;DHT22;12385;51.412;5.540;2023-07-28T11:33:54;24.80;99.90
24262;DHT22;12385;51.412;5.540;2023-07-28T11:36:28;24.80;99.90
24262;DHT22;12385;51.412;5.540;2023-07-28T11:38:55;24.80;99.90
24262;DHT22;12385;51.412;5.540;2023-07-28T11:41:22;24.80;99.90
24262;DHT22;12385;51.412;5.540;2023-07-28T11:43:49;24.90;99.90
24262;DHT22;12385;51.412;5.540;2023-07-28T11:46:34;25.00;99.90
24262;DHT22;12385;51.412;5.540;2023-07-28T11:49:29;25.10;99.90
24262;DHT22;12385;51.412;5.540;2023-07-28T11:51:55;25.10;99.90
24262;DHT22;12385;51.412;5.540;2023-07-28T11:54:26;25.10;99.90
24262;DHT22;12385;51.412;5.540;2023-07-28T11:56:56;25.10;99.90
24262;DHT22;12385;51.412;5.540;2023-07-28T11:59:22;25.10;99.90
24262;DHT22;12385;51.412;5.540;2023-07-28T12:02:01;25.00;99.90
24262;DHT22;12385;51.412;5.540;2023-07-28T12:04:34;24.90;99.90
24262;DHT22;12385;51.412;5.540;2023-07-28T12:07:13;24.90;99.90
24262;DHT22;12385;51.412;5.540;2023-07-28T12:12:11;24.80;99.90
24262;DHT22;12385;51.412;5.540;2023-07-28T12:14:37;24.80;99.90
24262;DHT22;12385;51.412;5.540;2023-07-28T12:17:11;24.80;99.90
24262;DHT22;12385;51.412;5.540;2023-07-28T12:22:28;24.70;99.90
24262;DHT22;12385;51.412;5.540;2023-07-28T12:24:54;24.70;99.90
24262;DHT22;12385;51.412;5.540;2023-07-28T12:27:20;24.60;99.90
24262;DHT22;12385;51.412;5.540;2023-07-28T12:29:53;24.60;99.90
24262;DHT22;12385;51.412;5.540;2023-07-28T12:32:19;24.70;99.90
24262;DHT22;12385;51.412;5.540;2023-07-28T12:34:45;24.70;99.90
24262;DHT22;12385;51.412;5.540;2023-07-28T12:37:10;24.80;99.90
24262;DHT22;12385;51.412;5.540;2023-07-28T12:39:38;24.80;99.90
24262;DHT22;12385;51.412;5.540;2023-07-28T12:42:07;24.90;99.90
24262;DHT22;12385;51.412;5.540;2023-07-28T12:44:33;25.10;99.90
24262;DHT22;12385;51.412;5.540;2023-07-28T12:46:59;25.30;99.90
24262;DHT22;12385;51.412;5.540;2023-07-28T12:49:25;25.50;99.90
24262;DHT22;12385;51.412;5.540;2023-07-28T12:51:51;25.60;99.90
24262;DHT22;12385;51.412;5.540;2023-07-28T12:54:16;25.70;99.90
24262;DHT22;12385;51.412;5.540;2023-07-28T12:56:42;25.80;99.90
24262;DHT22;12385;51.412;5.540;2023-07-28T12:59:08;25.90;99.90
24262;DHT22;12385;51.412;5.540;2023-07-28T13:01:37;25.90;99.90
24262;DHT22;12385;51.412;5.540;2023-07-28T13:04:02;25.70;99.90
24262;DHT22;12385;51.412;5.540;2023-07-28T13:06:28;25.70;99.90
24262;DHT22;12385;51.412;5.540;2023-07-28T13:08:53;25.50;99.90
24262;DHT22;12385;51.412;5.540;2023-07-28T13:11:19;25.50;99.90
24262;DHT22;12385;51.412;5.540;2023-07-28T13:13:46;25.70;99.90
24262;DHT22;12385;51.412;5.540;2023-07-28T13:16:12;26.10;99.90
24262;DHT22;12385;51.412;5.540;2023-07-28T13:18:37;26.30;99.90
24262;DHT22;12385;51.412;5.540;2023-07-28T13:21:05;26.50;99.90
24262;DHT22;12385;51.412;5.540;2023-07-28T13:23:31;26.60;99.90
24262;DHT22;12385;51.412;5.540;2023-07-28T13:25:57;26.60;99.90
24262;DHT22;12385;51.412;5.540;2023-07-28T13:28:23;26.60;99.90
24262;DHT22;12385;51.412;5.540;2023-07-28T13:30:51;26.70;99.90
24262;DHT22;12385;51.412;5.540;2023-07-28T13:33:16;26.60;99.90
24262;DHT22;12385;51.412;5.540;2023-07-28T13:35:42;26.50;99.90
24262;DHT22;12385;51.412;5.540;2023-07-28T13:38:08;26.40;99.90
24262;DHT22;12385;51.412;5.540;2023-07-28T13:40:35;26.30;99.90
24262;DHT22;12385;51.412;5.540;2023-07-28T13:43:00;26.40;99.90
24262;DHT22;12385;51.412;5.540;2023-07-28T13:45:26;26.50;99.90
24262;DHT22;12385;51.412;5.540;2023-07-28T13:47:52;26.60;99.90
24262;DHT22;12385;51.412;5.540;2023-07-28T13:50:18;26.70;99.90
24262;DHT22;12385;51.412;5.540;2023-07-28T13:52:43;26.90;99.90
24262;DHT22;12385;51.412;5.540;2023-07-28T13:55:10;27.00;99.90
24262;DHT22;12385;51.412;5.540;2023-07-28T13:57:36;27.00;99.90
24262;DHT22;12385;51.412;5.540;2023-07-28T14:00:02;26.90;99.90
24262;DHT22;12385;51.412;5.540;2023-07-28T14:02:28;26.60;99.90
24262;DHT22;12385;51.412;5.540;2023-07-28T14:04:54;26.60;99.90
24262;DHT22;12385;51.412;5.540;2023-07-28T14:07:19;26.70;99.90
24262;DHT22;12385;51.412;5.540;2023-07-28T14:09:45;26.70;99.90
24262;DHT22;12385;51.412;5.540;2023-07-28T14:12:11;26.60;99.90
24262;DHT22;12385;51.412;5.540;2023-07-28T14:14:37;26.50;99.90
24262;DHT22;12385;51.412;5.540;2023-07-28T14:17:02;26.50;99.90
24262;DHT22;12385;51.412;5.540;2023-07-28T14:19:28;26.40;99.90
24262;DHT22;12385;51.412;5.540;2023-07-28T14:21:54;26.20;99.90
24262;DHT22;12385;51.412;5.540;2023-07-28T14:24:19;26.10;99.90
24262;DHT22;12385;51.412;5.540;2023-07-28T14:26:45;26.10;99.90
24262;DHT22;12385;51.412;5.540;2023-07-28T14:29:11;26.20;99.90
24262;DHT22;12385;51.412;5.540;2023-07-28T14:31:36;26.30;99.90
24262;DHT22;12385;51.412;5.540;2023-07-28T14:34:02;26.50;99.90
24262;DHT22;12385;51.412;5.540;2023-07-28T14:36:27;26.80;99.90
24262;DHT22;12385;51.412;5.540;2023-07-28T14:38:53;27.00;99.90
24262;DHT22;12385;51.412;5.540;2023-07-28T14:41:19;27.10;99.90
24262;DHT22;12385;51.412;5.540;2023-07-28T14:43:44;27.10;99.90
24262;DHT22;12385;51.412;5.540;2023-07-28T14:46:11;27.00;99.90
24262;DHT22;12385;51.412;5.540;2023-07-28T14:48:36;26.80;99.90
24262;DHT22;12385;51.412;5.540;2023-07-28T14:51:02;26.60;99.90
24262;DHT22;12385;51.412;5.540;2023-07-28T14:53:32;26.30;99.90
24262;DHT22;12385;51.412;5.540;2023-07-28T14:55:58;26.20;99.90
24262;DHT22;12385;51.412;5.540;2023-07-28T14:58:24;26.00;99.90
24262;DHT22;12385;51.412;5.540;2023-07-28T15:00:50;25.80;99.90
24262;DHT22;12385;51.412;5.540;2023-07-28T15:03:16;25.70;99.90
24262;DHT22;12385;51.412;5.540;2023-07-28T15:05:42;25.60;99.90
24262;DHT22;12385;51.412;5.540;2023-07-28T15:08:07;25.70;99.90
24262;DHT22;12385;51.412;5.540;2023-07-28T15:10:33;25.80;99.90
24262;DHT22;12385;51.412;5.540;2023-07-28T15:12:58;25.90;99.90
24262;DHT22;12385;51.412;5.540;2023-07-28T15:15:24;25.90;99.90
24262;DHT22;12385;51.412;5.540;2023-07-28T15:17:50;25.80;99.90
24262;DHT22;12385;51.412;5.540;2023-07-28T15:20:15;25.70;99.90
24262;DHT22;12385;51.412;5.540;2023-07-28T15:22:45;25.70;99.90
24262;DHT22;12385;51.412;5.540;2023-07-28T15:25:10;25.50;99.90
24262;DHT22;12385;51.412;5.540;2023-07-28T15:27:36;25.50;99.90
24262;DHT22;12385;51.412;5.540;2023-07-28T15:30:02;25.50;99.90
24262;DHT22;12385;51.412;5.540;2023-07-28T15:32:28;25.50;99.90
24262;DHT22;12385;51.412;5.540;2023-07-28T15:34:53;25.50;99.90
24262;DHT22;12385;51.412;5.540;2023-07-28T15:37:19;25.60;99.90